createdAt,value
2017-10-17T00:01:26.503Z,98784.08
2017-10-17T00:03:54.917Z,98786.22
2017-10-17T00:06:23.288Z,98784.09
2017-10-17T00:08:51.729Z,98778.95
2017-10-17T00:11:20.112Z,98777.66
2017-10-17T00:13:48.499Z,98778.08
2017-10-17T00:16:17.005Z,98781.50
2017-10-17T00:18:46.210Z,98778.49
2017-10-17T00:21:14.581Z,98781.92
2017-10-17T00:23:43.705Z,98778.93
2017-10-17T00:26:12.140Z,98777.21
2017-10-17T00:28:40.565Z,98771.16
2017-10-17T00:31:08.963Z,98768.61
2017-10-17T00:33:37.347Z,98763.88
2017-10-17T00:36:10.261Z,98758.80
2017-10-17T00:41:43.747Z,98754.06
2017-10-17T00:44:12.277Z,98748.51
2017-10-17T00:46:41.584Z,98747.21
2017-10-17T00:49:12.558Z,98740.34
2017-10-17T00:51:40.946Z,98741.18
2017-10-17T00:54:09.349Z,98743.28
2017-10-17T00:56:38.512Z,98731.73
2017-10-17T00:59:07.053Z,98734.34
2017-10-17T01:01:36.341Z,98732.62
2017-10-17T01:04:05.495Z,98736.91
2017-10-17T01:06:33.882Z,98734.80
2017-10-17T01:09:02.344Z,98735.22
2017-10-17T01:11:30.757Z,98732.67
2017-10-17T01:13:59.276Z,98727.95
2017-10-17T01:16:27.714Z,98725.36
2017-10-17T01:18:56.103Z,98730.91
2017-10-17T01:21:24.479Z,98722.34
2017-10-17T01:23:59.457Z,98719.36
2017-10-17T01:26:27.933Z,98724.48
2017-10-17T01:28:59.929Z,98721.05
2017-10-17T01:31:28.372Z,98714.23
2017-10-17T01:33:56.869Z,98714.19
2017-10-17T01:36:25.394Z,98714.61
2017-10-17T01:38:53.789Z,98714.63
2017-10-17T01:41:22.177Z,98713.74
2017-10-17T01:43:56.120Z,98714.16
2017-10-17T01:46:24.515Z,98716.22
2017-10-17T01:52:15.244Z,98711.54
2017-10-17T01:55:00.230Z,98701.28
2017-10-17T01:57:34.102Z,98700.42
2017-10-17T02:00:05.433Z,98706.38
2017-10-17T02:02:41.940Z,98699.16
2017-10-17T02:05:10.312Z,98705.54
2017-10-17T02:07:44.854Z,98707.24
2017-10-17T02:10:24.967Z,98711.95
2017-10-17T02:12:53.362Z,98702.57
2017-10-17T02:15:21.734Z,98707.27
2017-10-17T02:18:00.172Z,98699.98
2017-10-17T02:20:28.672Z,98699.53
2017-10-17T02:22:57.047Z,98705.55
2017-10-17T02:25:40.309Z,98698.70
2017-10-17T02:28:20.257Z,98700.39
2017-10-17T02:30:51.369Z,98701.66
2017-10-17T02:33:22.213Z,98696.91
2017-10-17T02:35:51.412Z,98700.19
2017-10-17T02:38:19.853Z,98701.02
2017-10-17T02:40:49.152Z,98710.91
2017-10-17T02:43:29.332Z,98709.65
2017-10-17T02:45:57.863Z,98714.34
2017-10-17T02:48:42.465Z,98716.48
2017-10-17T02:51:10.831Z,98711.41
2017-10-17T02:53:39.365Z,98710.55
2017-10-17T02:56:07.755Z,98712.66
2017-10-17T02:58:36.157Z,98712.22
2017-10-17T03:01:31.229Z,98713.93
2017-10-17T03:03:59.606Z,98707.97
2017-10-17T03:06:27.998Z,98713.95
2017-10-17T03:08:56.501Z,98710.77
2017-10-17T03:11:25.037Z,98714.61
2017-10-17T03:13:58.240Z,98711.17
2017-10-17T03:16:26.762Z,98709.10
2017-10-17T03:18:55.133Z,98706.61
2017-10-17T03:21:26.381Z,98710.00
2017-10-17T03:23:58.276Z,98702.67
2017-10-17T03:26:26.815Z,98701.78
2017-10-17T03:28:55.191Z,98709.47
2017-10-17T03:31:23.605Z,98695.83
2017-10-17T03:33:55.504Z,98707.88
2017-10-17T03:36:24.665Z,98701.08
2017-10-17T03:38:54.982Z,98702.29
2017-10-17T03:41:39.997Z,98704.94
2017-10-17T03:44:22.954Z,98697.66
2017-10-17T03:46:51.441Z,98688.70
2017-10-17T03:49:28.657Z,98695.48
2017-10-17T03:51:57.205Z,98694.34
2017-10-17T03:54:32.314Z,98695.27
2017-10-17T03:57:00.693Z,98691.73
2017-10-17T03:59:46.631Z,98701.11
2017-10-17T04:02:15.041Z,98697.78
2017-10-17T04:04:53.130Z,98696.53
2017-10-17T04:07:33.377Z,98704.27
2017-10-17T04:10:10.049Z,98708.95
2017-10-17T04:12:38.425Z,98706.88
2017-10-17T04:15:09.852Z,98702.19
2017-10-17T04:17:40.178Z,98709.49
2017-10-17T04:20:22.877Z,98703.48
2017-10-17T04:23:01.487Z,98703.38
2017-10-17T04:25:37.336Z,98703.06
2017-10-17T04:28:41.472Z,98700.16
2017-10-17T04:31:18.317Z,98702.36
2017-10-17T04:34:02.994Z,98703.94
2017-10-17T04:36:49.955Z,98703.08
2017-10-17T04:39:18.414Z,98716.37
2017-10-17T04:45:23.394Z,98716.34
2017-10-17T04:51:49.102Z,98721.42
2017-10-17T04:54:26.808Z,98714.91
2017-10-17T04:57:01.742Z,98725.26
2017-10-17T05:03:04.652Z,98724.12
2017-10-17T05:05:59.630Z,98723.62
2017-10-17T05:11:34.942Z,98715.04
2017-10-17T05:14:29.672Z,98716.39
2017-10-17T05:17:09.911Z,98716.77
2017-10-17T05:19:51.007Z,98713.37
2017-10-17T05:22:22.088Z,98710.23
2017-10-17T05:24:54.866Z,98710.77
2017-10-17T05:27:43.065Z,98707.22
2017-10-17T05:30:49.925Z,98709.03
2017-10-17T05:36:47.993Z,98711.92
2017-10-17T05:39:16.361Z,98713.07
2017-10-17T05:41:44.882Z,98709.69
2017-10-17T05:44:21.539Z,98718.06
2017-10-17T05:46:49.924Z,98716.88
2017-10-17T05:49:25.081Z,98718.19
2017-10-17T05:51:54.230Z,98723.19
2017-10-17T05:54:22.658Z,98725.78
2017-10-17T05:56:52.482Z,98727.52
2017-10-17T05:59:20.832Z,98731.75
2017-10-17T06:01:49.376Z,98736.02
2017-10-17T06:04:17.725Z,98731.36
2017-10-17T06:06:46.096Z,98733.66
2017-10-17T06:09:14.449Z,98732.00
2017-10-17T06:11:42.818Z,98728.06
2017-10-17T06:14:11.207Z,98732.78
2017-10-17T06:16:40.094Z,98732.86
2017-10-17T06:19:08.476Z,98733.40
2017-10-17T06:21:36.855Z,98739.42
2017-10-17T06:24:06.007Z,98736.86
2017-10-17T06:26:34.421Z,98736.44
2017-10-17T06:29:02.785Z,98734.41
2017-10-17T06:31:31.152Z,98738.31
2017-10-17T06:33:59.521Z,98743.78
2017-10-17T06:36:27.900Z,98746.34
2017-10-17T06:38:56.278Z,98748.55
2017-10-17T06:41:24.828Z,98749.85
2017-10-17T06:43:53.967Z,98755.78
2017-10-17T06:46:22.337Z,98758.71
2017-10-17T06:48:50.746Z,98757.91
2017-10-17T06:51:19.124Z,98761.77
2017-10-17T06:53:47.499Z,98761.39
2017-10-17T06:56:15.868Z,98769.07
2017-10-17T06:58:44.237Z,98772.52
2017-10-17T07:01:12.618Z,98770.02
2017-10-17T07:03:40.990Z,98760.70
2017-10-17T07:06:09.380Z,98759.88
2017-10-17T07:08:37.857Z,98766.36
2017-10-17T07:11:06.229Z,98768.89
2017-10-17T07:13:34.609Z,98762.52
2017-10-17T07:16:02.997Z,98766.80
2017-10-17T07:18:31.373Z,98765.13
2017-10-17T07:20:59.767Z,98770.54
2017-10-17T07:23:28.150Z,98767.19
2017-10-17T07:25:56.516Z,98770.67
2017-10-17T07:28:24.894Z,98774.95
2017-10-17T07:30:53.278Z,98767.30
2017-10-17T07:33:21.801Z,98780.59
2017-10-17T07:35:50.206Z,98773.31
2017-10-17T07:38:18.573Z,98773.30
2017-10-17T07:40:47.753Z,98769.07
2017-10-17T07:43:16.133Z,98772.53
2017-10-17T07:45:44.509Z,98769.09
2017-10-17T07:48:12.882Z,98773.81
2017-10-17T07:50:41.272Z,98766.94
2017-10-17T07:53:09.702Z,98762.66
2017-10-17T07:55:38.076Z,98770.36
2017-10-17T07:58:06.459Z,98772.50
2017-10-17T08:00:34.833Z,98771.20
2017-10-17T08:03:03.207Z,98767.80
2017-10-17T08:05:31.577Z,98770.75
2017-10-17T08:07:59.975Z,98775.50
2017-10-17T08:10:28.347Z,98772.95
2017-10-17T08:12:56.725Z,98768.64
2017-10-17T08:15:25.128Z,98761.32
2017-10-17T08:17:53.501Z,98761.27
2017-10-17T08:20:21.876Z,98751.30
2017-10-17T08:22:50.276Z,98749.55
2017-10-17T08:25:18.644Z,98753.81
2017-10-17T08:27:47.016Z,98746.45
2017-10-17T08:30:15.594Z,98741.66
2017-10-17T08:32:44.057Z,98739.86
2017-10-17T08:35:12.485Z,98740.12
2017-10-17T08:37:40.867Z,98736.83
2017-10-17T08:40:09.656Z,98738.86
2017-10-17T08:42:38.788Z,98737.59
2017-10-17T08:45:07.164Z,98733.75
2017-10-17T08:47:35.553Z,98729.33
2017-10-17T08:50:03.931Z,98736.13
2017-10-17T08:52:32.308Z,98731.32
2017-10-17T08:55:00.743Z,98735.41
2017-10-17T08:57:29.125Z,98730.55
2017-10-17T08:59:57.502Z,98729.34
2017-10-17T09:02:26.699Z,98732.25
2017-10-17T09:04:55.099Z,98734.98
2017-10-17T09:07:23.466Z,98728.81
2017-10-17T09:09:51.841Z,98725.19
2017-10-17T09:12:20.229Z,98726.45
2017-10-17T09:14:48.625Z,98728.45
2017-10-17T09:17:17.034Z,98721.92
2017-10-17T09:19:45.481Z,98725.11
2017-10-17T09:22:13.865Z,98728.59
2017-10-17T09:24:42.230Z,98741.16
2017-10-17T09:27:10.605Z,98737.88
2017-10-17T09:29:38.980Z,98733.95
2017-10-17T09:32:07.406Z,98731.44
2017-10-17T09:34:35.785Z,98732.90
2017-10-17T09:37:04.149Z,98729.06
2017-10-17T09:39:32.530Z,98727.23
2017-10-17T09:42:00.908Z,98725.02
2017-10-17T09:44:29.283Z,98730.75
2017-10-17T09:46:57.668Z,98732.64
2017-10-17T09:49:26.034Z,98720.27
2017-10-17T09:51:54.419Z,98716.53
2017-10-17T09:54:22.785Z,98711.75
2017-10-17T09:56:51.164Z,98710.20
2017-10-17T09:59:19.521Z,98701.39
2017-10-17T10:01:48.036Z,98689.16
2017-10-17T10:04:16.886Z,98703.08
2017-10-17T10:06:45.278Z,98702.30
2017-10-17T10:09:13.790Z,98705.02
2017-10-17T10:11:42.201Z,98706.36
2017-10-17T10:14:10.645Z,98699.95
2017-10-17T10:16:39.199Z,98701.34
2017-10-17T10:19:07.705Z,98705.98
2017-10-17T10:21:36.384Z,98704.87
2017-10-17T10:24:05.378Z,98695.84
2017-10-17T10:26:33.766Z,98680.83
2017-10-17T10:29:02.172Z,98690.09
2017-10-17T10:31:30.583Z,98686.98
2017-10-17T10:33:59.729Z,98685.88
2017-10-17T10:36:28.144Z,98671.59
2017-10-17T10:38:56.546Z,98679.42
2017-10-17T10:41:24.914Z,98680.20
2017-10-17T10:43:53.295Z,98678.12
2017-10-17T10:46:21.667Z,98674.08
2017-10-17T10:48:50.037Z,98669.20
2017-10-17T10:51:18.406Z,98675.63
2017-10-17T10:53:46.777Z,98664.59
2017-10-17T10:56:15.141Z,98662.91
2017-10-17T10:58:43.507Z,98662.69
2017-10-17T11:01:11.896Z,98662.16
2017-10-17T11:03:40.281Z,98659.05
2017-10-17T11:06:08.661Z,98665.61
2017-10-17T11:08:37.044Z,98651.41
2017-10-17T11:11:05.417Z,98650.84
2017-10-17T11:13:33.795Z,98645.48
2017-10-17T11:16:02.229Z,98640.27
2017-10-17T11:18:30.592Z,98636.73
2017-10-17T11:20:59.025Z,98628.00
2017-10-17T11:23:27.390Z,98628.24
2017-10-17T11:25:55.759Z,98622.27
2017-10-17T11:28:24.117Z,98627.95
2017-10-17T11:30:52.558Z,98617.87
2017-10-17T11:33:21.012Z,98620.98
2017-10-17T11:35:49.509Z,98616.34
2017-10-17T11:38:17.869Z,98616.02
2017-10-17T11:41:04.548Z,98614.30
2017-10-17T11:43:53.336Z,98611.16
2017-10-17T11:46:21.726Z,98595.52
2017-10-17T11:48:50.215Z,98595.83
2017-10-17T11:51:18.728Z,98591.70
2017-10-17T11:53:47.878Z,98587.09
2017-10-17T11:56:16.251Z,98585.66
2017-10-17T11:58:44.621Z,98584.21
2017-10-17T12:01:12.981Z,98579.25
2017-10-17T12:03:41.345Z,98569.31
2017-10-17T12:06:09.726Z,98572.62
2017-10-17T12:08:38.106Z,98568.41
2017-10-17T12:11:06.476Z,98557.08
2017-10-17T12:13:34.858Z,98551.61
2017-10-17T12:16:03.221Z,98546.69
2017-10-17T12:18:31.610Z,98544.39
2017-10-17T12:21:00.000Z,98541.33
2017-10-17T12:23:28.372Z,98543.16
2017-10-17T12:25:57.538Z,98535.05
2017-10-17T12:28:25.910Z,98539.19
2017-10-17T12:30:54.569Z,98536.89
2017-10-17T12:33:24.712Z,98527.73
2017-10-17T12:35:53.095Z,98532.82
2017-10-17T12:38:21.477Z,98528.64
2017-10-17T12:40:49.875Z,98529.02
2017-10-17T12:43:18.245Z,98521.91
2017-10-17T12:45:46.624Z,98518.02
2017-10-17T12:48:14.994Z,98517.92
2017-10-17T12:50:43.373Z,98513.97
2017-10-17T12:53:11.740Z,98509.18
2017-10-17T12:55:40.095Z,98512.98
2017-10-17T12:58:08.495Z,98512.68
2017-10-17T13:00:36.868Z,98511.72
2017-10-17T13:03:05.254Z,98511.30
2017-10-17T13:05:33.649Z,98510.83
2017-10-17T13:08:02.046Z,98509.39
2017-10-17T13:10:30.442Z,98500.81
2017-10-17T13:12:58.815Z,98499.44
2017-10-17T13:15:27.194Z,98494.36
2017-10-17T13:17:55.570Z,98488.21
2017-10-17T13:20:23.948Z,98484.27
2017-10-17T13:22:52.322Z,98490.38
2017-10-17T13:25:21.473Z,98480.69
2017-10-17T13:27:49.849Z,98484.08
2017-10-17T13:30:18.224Z,98481.16
2017-10-17T13:32:46.598Z,98482.84
2017-10-17T13:35:14.975Z,98475.37
2017-10-17T13:37:43.401Z,98476.70
2017-10-17T13:40:12.549Z,98468.99
2017-10-17T13:42:40.923Z,98472.68
2017-10-17T13:45:09.291Z,98473.09
2017-10-17T13:47:37.654Z,98462.97
2017-10-17T13:50:06.026Z,98461.50
2017-10-17T13:52:34.385Z,98457.84
2017-10-17T13:55:02.768Z,98464.86
2017-10-17T13:57:31.173Z,98456.48
2017-10-17T13:59:59.544Z,98458.77
2017-10-17T14:02:27.930Z,98456.36
2017-10-17T14:04:56.333Z,98453.27
2017-10-17T14:07:24.705Z,98446.09
2017-10-17T14:09:53.090Z,98448.03
2017-10-17T14:12:21.466Z,98457.16
2017-10-17T14:14:50.864Z,98451.95
2017-10-17T14:17:19.234Z,98444.22
2017-10-17T14:19:47.620Z,98438.00
2017-10-17T14:22:16.013Z,98441.63
2017-10-17T14:24:44.385Z,98435.31
2017-10-17T14:27:12.757Z,98432.58
2017-10-17T14:29:41.113Z,98424.19
2017-10-17T14:32:09.484Z,98429.44
2017-10-17T14:34:37.863Z,98426.91
2017-10-17T14:37:06.240Z,98422.14
2017-10-17T14:39:34.622Z,98418.89
2017-10-17T14:42:02.994Z,98417.56
2017-10-17T14:44:32.135Z,98416.16
2017-10-17T14:47:00.530Z,98419.69
2017-10-17T14:49:28.912Z,98416.31
2017-10-17T14:51:57.299Z,98391.84
2017-10-17T14:54:25.684Z,98410.91
2017-10-17T14:56:54.061Z,98406.33
2017-10-17T14:59:22.440Z,98407.80
2017-10-17T15:01:50.848Z,98404.55
2017-10-17T15:04:19.221Z,98405.66
2017-10-17T15:06:47.624Z,98396.36
2017-10-17T15:09:16.008Z,98401.46
2017-10-17T15:11:44.405Z,98400.77
2017-10-17T15:14:12.780Z,98401.95
2017-10-17T15:16:41.551Z,98396.05
2017-10-17T15:19:09.918Z,98397.83
2017-10-17T15:21:38.301Z,98391.45
2017-10-17T15:24:06.669Z,98392.00
2017-10-17T15:26:35.088Z,98390.55
2017-10-17T15:29:03.490Z,98390.28
2017-10-17T15:31:31.861Z,98382.23
2017-10-17T15:34:00.237Z,98390.70
2017-10-17T15:36:28.622Z,98382.95
2017-10-17T15:38:57.029Z,98372.25
2017-10-17T15:41:26.170Z,98377.98
2017-10-17T15:43:54.544Z,98376.70
2017-10-17T15:46:22.919Z,98377.09
2017-10-17T15:48:51.297Z,98372.23
2017-10-17T15:51:19.685Z,98362.48
2017-10-17T15:53:48.074Z,98373.17
2017-10-17T15:56:16.445Z,98373.22
2017-10-17T15:58:44.820Z,98370.52
2017-10-17T16:01:13.936Z,98377.19
2017-10-17T16:03:42.309Z,98373.05
2017-10-17T16:06:10.673Z,98372.92
2017-10-17T16:08:39.037Z,98376.30
2017-10-17T16:11:07.430Z,98377.78
2017-10-17T16:13:35.810Z,98381.66
2017-10-17T16:16:04.181Z,98380.38
2017-10-17T16:18:32.570Z,98380.63
2017-10-17T16:21:00.937Z,98382.88
2017-10-17T16:23:29.316Z,98384.14
2017-10-17T16:25:57.686Z,98384.47
2017-10-17T16:28:26.105Z,98379.20
2017-10-17T16:30:54.476Z,98383.03
2017-10-17T16:33:22.845Z,98384.05
2017-10-17T16:35:51.220Z,98389.83
2017-10-17T16:38:19.656Z,98386.73
2017-10-17T16:40:48.049Z,98382.20
2017-10-17T16:43:16.414Z,98383.23
2017-10-17T16:45:44.787Z,98383.98
2017-10-17T16:48:13.170Z,98380.09
2017-10-17T16:50:42.317Z,98384.00
2017-10-17T16:53:10.685Z,98388.84
2017-10-17T16:55:39.053Z,98385.89
2017-10-17T16:58:07.429Z,98381.23
2017-10-17T17:00:35.826Z,98386.66
2017-10-17T17:03:04.189Z,98386.20
2017-10-17T17:05:32.563Z,98383.65
2017-10-17T17:08:00.944Z,98382.30
2017-10-17T17:10:29.308Z,98383.81
2017-10-17T17:12:57.679Z,98383.70
2017-10-17T17:15:26.045Z,98378.70
2017-10-17T17:17:54.513Z,98383.72
2017-10-17T17:20:23.685Z,98388.28
2017-10-17T17:22:52.058Z,98384.83
2017-10-17T17:25:20.425Z,98386.95
2017-10-17T17:27:48.797Z,98390.49
2017-10-17T17:30:17.177Z,98387.70
2017-10-17T17:32:45.548Z,98385.36
2017-10-17T17:35:13.905Z,98386.03
2017-10-17T17:37:42.866Z,98390.31
2017-10-17T17:40:11.242Z,98395.47
2017-10-17T17:42:39.644Z,98390.13
2017-10-17T17:45:08.016Z,98392.11
2017-10-17T17:47:37.159Z,98391.95
2017-10-17T17:50:05.533Z,98391.56
2017-10-17T17:52:34.053Z,98391.66
2017-10-17T17:55:02.821Z,98390.89
2017-10-17T17:57:32.008Z,98391.42
2017-10-17T18:00:00.398Z,98394.16
2017-10-17T18:02:29.519Z,98395.09
2017-10-17T18:04:57.990Z,98395.80
2017-10-17T18:07:26.369Z,98397.43
2017-10-17T18:09:54.780Z,98397.22
2017-10-17T18:12:23.917Z,98394.43
2017-10-17T18:14:52.303Z,98394.52
2017-10-17T18:17:20.761Z,98399.06
2017-10-17T18:19:49.164Z,98395.08
2017-10-17T18:22:17.537Z,98392.83
2017-10-17T18:24:45.912Z,98384.17
2017-10-17T18:27:14.303Z,98385.55
2017-10-17T18:29:42.722Z,98377.67
2017-10-17T18:32:11.866Z,98377.31
2017-10-17T18:34:40.260Z,98377.31
2017-10-17T18:37:08.665Z,98384.17
2017-10-17T18:39:39.359Z,98380.66
2017-10-17T18:42:07.792Z,98377.04
2017-10-17T18:44:36.175Z,98340.91
2017-10-17T18:47:07.780Z,98361.18
2017-10-17T18:49:36.957Z,98369.34
2017-10-17T18:52:05.377Z,98371.54
2017-10-17T18:54:33.753Z,98358.02
2017-10-17T18:57:02.133Z,98371.42
2017-10-17T18:59:30.513Z,98370.77
2017-10-17T19:01:58.902Z,98363.34
2017-10-17T19:04:28.048Z,98370.70
2017-10-17T19:06:57.726Z,98367.84
2017-10-17T19:09:26.117Z,98366.05
2017-10-17T19:11:54.489Z,98362.81
2017-10-17T19:14:22.861Z,98356.39
2017-10-17T19:16:51.238Z,98367.31
2017-10-17T19:19:19.612Z,98366.72
2017-10-17T19:21:48.002Z,98363.86
2017-10-17T19:24:16.373Z,98361.91
2017-10-17T19:26:44.753Z,98361.84
2017-10-17T19:29:13.913Z,98365.13
2017-10-17T19:31:42.283Z,98356.52
2017-10-17T19:34:10.693Z,98351.30
2017-10-17T19:36:39.837Z,98347.39
2017-10-17T19:39:08.273Z,98344.75
2017-10-17T19:41:36.657Z,98346.16
2017-10-17T19:44:05.053Z,98344.52
2017-10-17T19:46:33.458Z,98344.09
2017-10-17T19:49:01.838Z,98340.28
2017-10-17T19:51:30.238Z,98343.48
2017-10-17T19:53:59.888Z,98346.37
2017-10-17T19:56:28.254Z,98340.47
2017-10-17T19:58:57.394Z,98340.17
2017-10-17T20:01:25.762Z,98345.90
2017-10-17T20:03:54.126Z,98347.70
2017-10-17T20:06:22.501Z,98344.28
2017-10-17T20:08:50.876Z,98339.61
2017-10-17T20:11:20.086Z,98339.67
2017-10-17T20:13:48.466Z,98340.48
2017-10-17T20:16:16.863Z,98343.48
2017-10-17T20:18:45.245Z,98342.92
2017-10-17T20:21:13.641Z,98343.00
2017-10-17T20:23:42.005Z,98346.53
2017-10-17T20:26:10.400Z,98342.02
2017-10-17T20:28:38.791Z,98339.31
2017-10-17T20:31:08.121Z,98343.61
2017-10-17T20:33:36.494Z,98343.92
2017-10-17T20:36:04.878Z,98330.11
2017-10-17T20:38:33.257Z,98345.09
2017-10-17T20:41:20.617Z,98345.34
2017-10-17T20:43:49.445Z,98337.09
2017-10-17T20:46:17.820Z,98340.08
2017-10-17T20:48:46.230Z,98320.06
2017-10-17T20:51:14.944Z,98333.00
2017-10-17T20:53:45.702Z,98327.83
2017-10-17T20:56:14.706Z,98323.34
2017-10-17T20:58:43.106Z,98327.06
2017-10-17T21:01:11.481Z,98322.68
2017-10-17T21:03:39.851Z,98315.78
2017-10-17T21:06:08.328Z,98321.41
2017-10-17T21:08:36.718Z,98317.50
2017-10-17T21:11:05.873Z,98323.14
2017-10-17T21:13:34.245Z,98317.50
2017-10-17T21:16:02.661Z,98310.70
2017-10-17T21:18:31.030Z,98300.34
2017-10-17T21:20:59.417Z,98301.67
2017-10-17T21:23:27.812Z,98303.79
2017-10-17T21:25:56.197Z,98303.95
2017-10-17T21:28:24.579Z,98309.45
2017-10-17T21:30:53.720Z,98299.91
2017-10-17T21:33:22.093Z,98299.43
2017-10-17T21:35:50.474Z,98299.37
2017-10-17T21:38:18.846Z,98300.59
2017-10-17T21:40:47.230Z,98300.17
2017-10-17T21:43:15.623Z,98300.58
2017-10-17T21:45:43.990Z,98293.75
2017-10-17T21:48:12.373Z,98292.86
2017-10-17T21:50:40.749Z,98295.48
2017-10-17T21:53:09.126Z,98291.67
2017-10-17T21:55:37.495Z,98290.39
2017-10-17T21:58:06.132Z,98289.95
2017-10-17T22:01:07.917Z,98283.86
2017-10-17T22:03:36.290Z,98278.29
2017-10-17T22:06:04.671Z,98278.51
2017-10-17T22:08:33.054Z,98276.23
2017-10-17T22:11:01.445Z,98281.33
2017-10-17T22:13:29.823Z,98280.38
2017-10-17T22:15:58.197Z,98269.47
2017-10-17T22:18:26.561Z,98273.39
2017-10-17T22:20:54.933Z,98264.77
2017-10-17T22:23:23.303Z,98271.89
2017-10-17T22:25:51.671Z,98266.36
2017-10-17T22:28:21.049Z,98262.92
2017-10-17T22:30:49.433Z,98263.77
2017-10-17T22:33:17.800Z,98261.98
2017-10-17T22:35:46.200Z,98258.33
2017-10-17T22:38:14.566Z,98255.21
2017-10-17T22:40:42.934Z,98254.75
2017-10-17T22:43:11.317Z,98253.08
2017-10-17T22:45:40.541Z,98247.41
2017-10-17T22:48:08.918Z,98249.84
2017-10-17T22:50:37.285Z,98246.80
2017-10-17T22:53:05.653Z,98253.23
2017-10-17T22:55:34.030Z,98252.67
2017-10-17T22:58:02.399Z,98246.75
2017-10-17T23:00:30.786Z,98244.61
2017-10-17T23:02:59.161Z,98241.63
2017-10-17T23:05:27.541Z,98237.58
2017-10-17T23:07:55.921Z,98241.63
2017-10-17T23:10:24.324Z,98235.48
2017-10-17T23:12:52.701Z,98235.00
2017-10-17T23:15:21.072Z,98228.52
2017-10-17T23:18:07.150Z,98228.86
2017-10-17T23:20:38.379Z,98229.32
2017-10-17T23:23:06.741Z,98227.59
2017-10-17T23:25:35.110Z,98228.07
2017-10-17T23:28:03.480Z,98228.13
2017-10-17T23:30:31.837Z,98224.77
2017-10-17T23:33:00.203Z,98225.61
2017-10-17T23:35:28.576Z,98219.89
2017-10-17T23:37:56.935Z,98217.75
2017-10-17T23:40:25.304Z,98204.49
2017-10-17T23:42:53.688Z,98220.64
2017-10-17T23:45:22.078Z,98222.44
2017-10-17T23:47:50.471Z,98216.41
2017-10-17T23:50:18.841Z,98219.23
2017-10-17T23:52:47.217Z,98220.18
2017-10-17T23:55:15.612Z,98220.41
2017-10-17T23:57:43.990Z,98211.80
